.
WxDataArchive / Data Records for 2010-12-07
2010-12-06 December 2010 2010-12-08

Data Records for Tuesday, 07 December 2010

Time	Temp	Chill	HIndex	Humid	Dewpt	 Wind 	HiWind	WindDir	Rain 	Barom 
-----	----	-----	------	-----	-----	------	------	-------	-----	----- 
00:00	16.1	16.1	16.1	84	12.1	1	3	225	0.00	30.016 
00:05	16.1	16.1	16.1	84	12.1	1	4	248	0.00	30.016 
00:10	16.2	16.2	16.2	84	12.2	1	3	248	0.00	30.016 
00:15	16.2	16.2	16.2	84	12.2	1	5	248	0.00	30.016 
00:20	16.2	16.2	16.2	84	12.2	1	4	248	0.00	30.016 
00:25	16.4	16.4	16.4	84	12.4	1	3	248	0.00	30.016 
00:30	16.4	16.4	16.4	84	12.4	1	3	248	0.00	30.008 
00:35	16.5	16.5	16.5	85	12.8	1	3	248	0.00	30.008 
00:40	16.5	16.5	16.5	85	12.8	1	3	248	0.00	30.008 
00:45	16.5	16.5	16.5	85	12.8	0	2	248	0.00	30.005 
00:50	16.7	16.7	16.7	85	13.0	1	2	248	0.00	30.005 
00:55	16.7	16.7	16.7	85	13.0	1	2	248	0.00	30.005 
01:00	16.7	16.7	16.7	85	13.0	1	3	248	0.00	30.003 
01:05	16.9	16.9	16.9	85	13.2	1	3	248	0.00	30.003 
01:10	16.9	16.9	16.9	86	13.5	1	3	248	0.00	30.003 
01:15	17.0	17.0	17.0	86	13.6	1	4	248	0.00	30.002 
01:20	17.0	17.0	17.0	86	13.6	1	3	248	0.00	30.002 
01:25	17.0	17.0	17.0	86	13.6	1	3	248	0.00	30.002 
01:30	17.0	17.0	17.0	86	13.6	1	2	248	0.00	30.002 
01:35	17.2	17.2	17.2	86	13.7	1	4	248	0.00	30.002 
01:40	17.2	17.2	17.2	86	13.7	1	3	248	0.00	30.002 
01:45	17.2	17.2	17.2	86	13.7	1	3	248	0.00	30.002 
01:50	17.3	17.3	17.3	86	13.8	1	3	248	0.00	30.002 
01:55	17.3	17.3	17.3	86	13.8	2	7	248	0.00	30.002 
02:00	17.3	17.3	17.3	86	13.8	1	3	248	0.00	30.002 
02:05	17.3	17.3	17.3	86	13.8	1	4	248	0.00	30.002 
02:10	17.5	17.5	17.5	86	14.0	1	3	248	0.00	30.002 
02:15	17.5	17.5	17.5	86	14.0	1	2	270	0.00	30.010 
02:20	17.5	17.5	17.5	86	14.0	1	3	270	0.00	30.010 
02:25	17.7	17.7	17.7	86	14.2	2	3	270	0.00	30.010 
02:30	17.7	17.7	17.7	85	14.0	2	4	270	0.00	30.013 
02:35	17.7	17.7	17.7	85	14.0	2	4	270	0.00	30.013 
02:40	17.7	17.7	17.7	85	14.0	2	4	248	0.00	30.013 
02:45	17.7	17.7	17.7	85	14.0	1	4	248	0.00	30.015 
02:50	17.7	17.7	17.7	85	14.0	1	3	248	0.00	30.015 
02:55	17.7	17.7	17.7	85	14.0	2	4	248	0.00	30.015 
03:00	17.7	17.7	17.7	84	13.7	1	3	248	0.00	30.015 
03:05	17.5	17.5	17.5	84	13.5	1	3	248	0.00	30.015 
03:10	17.3	17.3	17.3	84	13.3	1	3	248	0.00	30.015 
03:15	17.3	17.3	17.3	84	13.3	1	3	248	0.00	30.018 
03:20	17.3	17.3	17.3	84	13.3	1	3	225	0.00	30.018 
03:25	17.3	17.3	17.3	84	13.3	1	2	225	0.00	30.018 
03:30	17.3	17.3	17.3	84	13.3	1	3	225	0.00	30.017 
03:35	17.3	17.3	17.3	84	13.3	1	2	292	0.00	30.017 
03:40	17.2	17.2	17.2	84	13.2	1	3	270	0.00	30.017 
03:45	17.0	17.0	17.0	84	13.0	1	3	270	0.00	30.017 
03:50	16.9	16.9	16.9	84	12.9	1	4	270	0.00	30.017 
03:55	16.7	16.7	16.7	84	12.7	1	3	270	0.00	30.017 
04:00	16.5	16.5	16.5	84	12.5	1	3	270	0.00	30.017 
04:05	16.7	16.7	16.7	84	12.7	2	3	270	0.00	30.017 
04:10	16.5	16.5	16.5	84	12.5	1	3	270	0.00	30.017 
04:15	16.5	16.5	16.5	84	12.5	1	3	270	0.00	30.020 
04:20	16.5	16.5	16.5	84	12.5	1	3	270	0.00	30.020 
04:25	16.4	16.4	16.4	84	12.4	1	3	270	0.00	30.020 
04:30	16.2	16.2	16.2	84	12.2	0	2	270	0.00	30.025 
04:35	16.1	16.1	16.1	83	11.9	0	2	270	0.00	30.025 
04:40	15.9	15.9	15.9	84	11.9	1	4	248	0.00	30.025 
04:45	15.9	15.9	15.9	84	11.9	1	2	248	0.00	30.027 
04:50	15.7	15.7	15.7	84	11.7	1	2	248	0.00	30.027 
04:55	15.7	15.7	15.7	84	11.7	1	2	248	0.00	30.027 
05:00	15.9	15.9	15.9	84	11.9	1	3	248	0.00	30.029 
05:05	16.1	16.1	16.1	84	12.1	1	2	248	0.00	30.029 
05:10	16.2	16.2	16.2	84	12.2	1	3	248	0.00	30.029 
05:15	16.4	16.4	16.4	84	12.4	1	3	248	0.00	30.026 
05:20	16.2	16.2	16.2	84	12.2	1	2	248	0.00	30.026 
05:25	16.2	16.2	16.2	84	12.2	1	2	248	0.00	30.026 
05:30	16.2	16.2	16.2	84	12.2	1	2	248	0.00	30.029 
05:35	16.2	16.2	16.2	84	12.2	1	2	248	0.00	30.029 
05:40	16.4	16.4	16.4	85	12.7	1	2	248	0.00	30.029 
05:45	16.5	16.5	16.5	85	12.8	1	3	248	0.00	30.033 
05:50	16.7	16.7	16.7	85	13.0	1	3	248	0.00	30.033 
05:55	16.9	16.9	16.9	85	13.2	1	3	248	0.00	30.033 
06:00	17.2	17.2	17.2	85	13.5	1	2	248	0.00	30.035 
06:05	17.2	17.2	17.2	85	13.5	1	3	248	0.00	30.035 
06:10	17.3	17.3	17.3	85	13.6	1	3	248	0.00	30.035 
06:15	17.5	17.5	17.5	85	13.8	1	3	248	0.00	30.035 
06:20	17.7	17.7	17.7	85	14.0	1	2	248	0.00	30.035 
06:25	17.8	17.8	17.8	84	13.8	1	2	248	0.00	30.035 
06:30	18.0	18.0	18.0	84	14.0	0	3	248	0.00	30.041 
06:35	18.1	18.1	18.1	84	14.1	1	2	248	0.00	30.041 
06:40	18.1	18.1	18.1	84	14.1	1	2	248	0.00	30.041 
06:45	18.3	18.3	18.3	84	14.3	1	3	248	0.00	30.043 
06:50	18.3	18.3	18.3	84	14.3	1	2	248	0.00	30.043 
06:55	18.4	18.4	18.4	84	14.4	1	2	248	0.00	30.043 
07:00	18.6	18.6	18.6	84	14.6	1	2	248	0.00	30.048 
07:05	18.6	18.6	18.6	84	14.6	1	3	248	0.00	30.048 
07:10	18.8	18.8	18.8	83	14.5	0	2	248	0.00	30.048 
07:15	18.8	18.8	18.8	83	14.5	1	2	248	0.00	30.048 
07:20	18.9	18.9	18.9	83	14.6	1	2	248	0.00	30.048 
07:25	18.9	18.9	18.9	83	14.6	1	3	248	0.00	30.048 
07:30	19.1	19.1	19.1	83	14.8	1	3	248	0.00	30.051 
07:35	19.2	19.2	19.2	83	14.9	1	2	248	0.00	30.051 
07:40	19.2	19.2	19.2	83	14.9	1	2	248	0.00	30.051 
07:45	19.4	19.4	19.4	83	15.1	1	2	248	0.00	30.051 
07:50	19.4	19.4	19.4	83	15.1	1	3	248	0.00	30.051 
07:55	19.5	19.5	19.5	83	15.2	1	2	248	0.00	30.051 
08:00	19.5	19.5	19.5	83	15.2	1	3	248	0.00	30.061 
08:05	19.7	19.7	19.7	83	15.4	1	2	248	0.00	30.061 
08:10	19.7	19.7	19.7	83	15.4	1	2	248	0.00	30.061 
08:15	19.9	19.9	19.9	83	15.6	1	3	248	0.00	30.066 
08:20	19.9	19.9	19.9	83	15.6	1	2	248	0.00	30.066 
08:25	19.9	19.9	19.9	83	15.6	1	2	248	0.00	30.066 
08:30	20.0	20.0	20.0	83	15.7	0	2	248	0.00	30.067 
08:35	20.0	20.0	20.0	83	15.7	1	3	248	0.00	30.067 
08:40	20.2	20.2	20.2	83	15.9	1	3	248	0.00	30.067 
08:45	20.3	20.3	20.3	83	16.0	0	2	248	0.00	30.075 
08:50	20.3	20.3	20.3	84	16.3	0	2	248	0.00	30.075 
08:55	20.5	20.5	20.5	84	16.4	1	2	248	0.00	30.075 
09:00	20.5	20.5	20.5	84	16.4	1	2	248	0.00	30.078 
09:05	20.6	20.6	20.6	84	16.5	1	3	248	0.00	30.078 
09:10	20.6	20.6	20.6	83	16.3	1	3	270	0.00	30.078 
09:15	20.6	20.6	20.6	83	16.3	1	3	248	0.00	30.082 
09:20	20.8	20.8	20.8	83	16.5	1	3	248	0.00	30.082 
09:25	21.0	21.0	21.0	83	16.7	0	2	248	0.00	30.082 
09:30	21.1	21.1	21.1	83	16.8	0	2	248	0.00	30.087 
09:35	21.1	21.1	21.1	83	16.8	1	3	248	0.00	30.087 
09:40	21.3	21.3	21.3	83	17.0	1	4	338	0.00	30.087 
09:45	21.4	21.4	21.4	83	17.1	1	3	248	0.00	30.093 
09:50	21.6	21.6	21.6	83	17.3	1	3	248	0.00	30.093 
09:55	21.8	21.8	21.8	83	17.4	1	4	248	0.00	30.093 
10:00	21.8	21.8	21.8	83	17.4	1	3	248	0.00	30.092 
10:05	22.1	22.1	22.1	82	17.5	1	3	248	0.00	30.092 
10:10	22.1	22.1	22.1	82	17.5	1	3	248	0.00	30.092 
10:15	22.2	22.2	22.2	82	17.6	1	4	248	0.00	30.097 
10:20	22.5	22.5	22.5	82	17.9	1	3	292	0.00	30.097 
10:25	22.5	22.5	22.5	81	17.6	1	3	270	0.00	30.097 
10:30	22.5	22.5	22.5	81	17.6	1	3	270	0.00	30.105 
10:35	22.7	22.7	22.7	81	17.8	1	3	248	0.00	30.105 
10:40	22.7	22.7	22.7	81	17.8	2	4	248	0.00	30.105 
10:45	22.5	22.5	22.5	80	17.3	2	4	248	0.00	30.109 
10:50	22.7	22.7	22.7	81	17.8	2	6	248	0.00	30.109 
10:55	22.5	22.5	22.5	80	17.3	1	2	248	0.00	30.109 
11:00	22.7	22.7	22.7	80	17.5	1	3	248	0.00	30.111 
11:05	22.7	22.7	22.7	80	17.5	2	5	248	0.00	30.111 
11:10	22.5	22.5	22.5	79	17.0	2	3	248	0.00	30.111 
11:15	22.5	22.5	22.5	80	17.3	2	4	248	0.00	30.110 
11:20	22.5	22.5	22.5	80	17.3	2	3	248	0.00	30.110 
11:25	22.7	22.7	22.7	80	17.5	1	2	248	0.00	30.110 
11:30	22.9	22.9	22.9	80	17.7	2	3	248	0.00	30.106 
11:35	23.2	23.2	23.2	80	18.0	2	5	248	0.00	30.106 
11:40	23.0	23.0	23.0	80	17.8	2	5	270	0.00	30.106 
11:45	22.9	22.9	22.9	80	17.7	2	4	248	0.00	30.104 
11:50	23.0	23.0	23.0	80	17.8	2	4	248	0.00	30.104 
11:55	23.3	23.3	23.3	80	18.1	2	6	248	0.00	30.104 
12:00	23.5	23.5	23.5	80	18.3	2	4	248	0.00	30.100 
12:05	23.5	23.5	23.5	80	18.3	2	5	248	0.00	30.100 
12:10	23.8	23.8	23.8	80	18.5	2	5	248	0.00	30.100 
12:15	23.9	23.9	23.9	80	18.6	2	4	248	0.00	30.101 
12:20	24.1	24.1	24.1	79	18.5	1	4	270	0.00	30.101 
12:25	24.2	24.2	24.2	78	18.3	3	4	270	0.00	30.101 
12:30	24.2	24.2	24.2	77	18.1	2	4	248	0.00	30.098 
12:35	24.1	24.1	24.1	78	18.3	2	3	248	0.00	30.098 
12:40	24.2	24.2	24.2	79	18.6	1	5	248	0.00	30.098 
12:45	24.5	24.5	24.5	78	18.6	2	4	270	0.00	30.093 
12:50	24.5	24.5	24.5	77	18.3	2	5	248	0.00	30.093 
12:55	24.5	24.5	24.5	77	18.3	2	5	248	0.00	30.093 
13:00	24.5	24.5	24.5	74	17.4	3	6	270	0.00	30.091 
13:05	24.5	24.5	24.5	72	16.8	2	4	338	0.00	30.091 
13:10	24.5	24.5	24.5	70	16.1	2	5	270	0.00	30.091 
13:15	24.5	24.5	24.5	69	15.8	2	4	248	0.00	30.092 
13:20	24.8	24.8	24.8	71	16.8	1	5	338	0.00	30.092 
13:25	24.7	24.7	24.7	69	16.0	2	5	270	0.00	30.092 
13:30	24.7	24.7	24.7	69	16.0	2	6	270	0.00	30.090 
13:35	24.7	24.7	24.7	68	15.7	2	5	315	0.00	30.090 
13:40	24.8	24.8	24.8	69	16.1	1	4	338	0.00	30.090 
13:45	25.0	25.0	25.0	69	16.3	1	3	338	0.00	30.088 
13:50	25.1	25.1	25.1	69	16.4	2	4	248	0.00	30.088 
13:55	25.1	25.1	25.1	70	16.7	1	3	315	0.00	30.088 
14:00	25.1	25.1	25.1	68	16.1	3	7	270	0.00	30.087 
14:05	25.1	25.1	25.1	68	16.1	1	5	292	0.00	30.087 
14:10	25.3	25.3	25.3	67	15.9	2	4	292	0.00	30.087 
14:15	25.0	25.0	25.0	67	15.6	1	3	292	0.00	30.087 
14:20	24.7	24.7	24.7	68	15.7	1	4	270	0.00	30.087 
14:25	24.8	24.8	24.8	68	15.8	1	5	338	0.00	30.087 
14:30	25.3	25.3	25.3	68	16.2	2	7	270	0.00	30.078 
14:35	25.7	25.7	25.7	67	16.3	3	6	270	0.00	30.078 
14:40	25.8	25.8	25.8	66	16.0	3	6	248	0.00	30.078 
14:45	25.8	25.8	25.8	66	16.0	3	6	270	0.00	30.080 
14:50	25.7	25.7	25.7	67	16.3	2	5	248	0.00	30.080 
14:55	25.4	25.4	25.4	67	16.0	3	6	248	0.00	30.080 
15:00	25.3	25.3	25.3	68	16.2	2	5	270	0.00	30.084 
15:05	25.3	25.3	25.3	69	16.6	2	4	248	0.00	30.084 
15:10	25.3	25.3	25.3	69	16.6	2	7	270	0.00	30.084 
15:15	25.4	25.4	25.4	70	17.0	2	5	270	0.00	30.089 
15:20	25.6	25.6	25.6	71	17.5	3	6	270	0.00	30.089 
15:25	25.4	20.5	25.4	72	17.7	4	9	270	0.00	30.089 
15:30	25.1	25.1	25.1	73	17.7	3	5	270	0.00	30.089 
15:35	25.1	25.1	25.1	74	18.0	3	5	292	0.00	30.089 
15:40	25.1	25.1	25.1	75	18.3	3	6	270	0.00	30.089 
15:45	25.1	25.1	25.1	76	18.6	1	3	292	0.00	30.092 
15:50	25.0	25.0	25.0	76	18.5	2	5	270	0.00	30.092 
15:55	25.0	25.0	25.0	76	18.5	2	4	270	0.00	30.092 
16:00	24.8	24.8	24.8	76	18.3	3	6	270	0.00	30.096 
16:05	24.5	24.5	24.5	77	18.3	2	4	270	0.00	30.096 
16:10	24.2	24.2	24.2	78	18.3	3	5	270	0.00	30.096 
16:15	24.1	24.1	24.1	79	18.5	2	5	270	0.00	30.102 
16:20	23.9	23.9	23.9	80	18.6	3	5	270	0.00	30.102 
16:25	23.8	23.8	23.8	81	18.8	3	5	270	0.00	30.102 
16:30	23.9	23.9	23.9	83	19.5	2	4	270	0.00	30.105 
16:35	23.9	23.9	23.9	81	18.9	2	4	248	0.00	30.105 
16:40	23.9	23.9	23.9	80	18.6	2	5	270	0.00	30.105 
16:45	24.1	24.1	24.1	80	18.8	3	5	270	0.00	30.108 
16:50	24.1	24.1	24.1	79	18.5	2	5	248	0.00	30.108 
16:55	23.9	23.9	23.9	79	18.4	2	4	248	0.00	30.108 
17:00	23.8	23.8	23.8	79	18.3	2	4	270	0.00	30.111 
17:05	23.6	23.6	23.6	80	18.4	2	4	270	0.00	30.111 
17:10	23.5	23.5	23.5	80	18.3	2	4	270	0.00	30.111 
17:15	23.2	23.2	23.2	80	18.0	2	6	270	0.00	30.118 
17:20	23.2	23.2	23.2	81	18.3	3	5	270	0.00	30.118 
17:25	23.0	23.0	23.0	81	18.1	1	4	248	0.00	30.118 
17:30	23.0	23.0	23.0	81	18.1	2	5	270	0.00	30.125 
17:35	23.0	23.0	23.0	81	18.1	2	5	248	0.00	30.125 
17:40	22.9	22.9	22.9	81	18.0	3	5	270	0.00	30.125 
17:45	22.9	22.9	22.9	81	18.0	2	4	248	0.00	30.127 
17:50	22.9	22.9	22.9	80	17.7	2	5	248	0.00	30.127 
17:55	22.9	22.9	22.9	80	17.7	3	6	248	0.00	30.127 
18:00	22.7	22.7	22.7	79	17.2	3	7	270	0.00	30.128 
18:05	22.5	22.5	22.5	79	17.0	2	6	270	0.00	30.128 
18:10	22.5	22.5	22.5	78	16.7	2	4	292	0.00	30.128 
18:15	22.4	22.4	22.4	78	16.6	2	4	292	0.00	30.137 
18:20	22.2	22.2	22.2	78	16.4	2	5	270	0.00	30.137 
18:25	22.1	22.1	22.1	78	16.3	3	6	270	0.00	30.137 
18:30	21.9	21.9	21.9	78	16.1	3	5	270	0.00	30.139 
18:35	21.8	21.8	21.8	78	16.0	2	6	270	0.00	30.139 
18:40	21.4	21.4	21.4	78	15.6	2	4	270	0.00	30.139 
18:45	21.3	21.3	21.3	78	15.5	2	3	248	0.00	30.142 
18:50	21.1	21.1	21.1	79	15.6	2	4	248	0.00	30.142 
18:55	20.8	20.8	20.8	79	15.3	3	5	270	0.00	30.142 
19:00	20.6	20.6	20.6	79	15.1	3	5	270	0.00	30.145 
19:05	20.5	20.5	20.5	79	15.0	2	6	270	0.00	30.145 
19:10	20.3	20.3	20.3	79	14.8	3	6	270	0.00	30.145 
19:15	20.2	20.2	20.2	79	14.8	3	7	270	0.00	30.156 
19:20	20.0	20.0	20.0	79	14.6	2	9	270	0.00	30.156 
19:25	19.9	19.9	19.9	79	14.5	3	7	270	0.00	30.156 
19:30	19.9	19.9	19.9	79	14.5	2	5	270	0.00	30.158 
19:35	19.7	19.7	19.7	79	14.3	2	4	270	0.00	30.158 
19:40	19.5	19.5	19.5	79	14.1	2	4	270	0.00	30.158 
19:45	19.4	19.4	19.4	79	14.0	2	5	248	0.00	30.164 
19:50	19.4	19.4	19.4	79	14.0	2	3	248	0.00	30.164 
19:55	19.2	19.2	19.2	80	14.1	2	4	248	0.00	30.164 
20:00	19.1	19.1	19.1	80	14.0	2	4	270	0.00	30.163 
20:05	19.1	19.1	19.1	80	14.0	2	5	270	0.00	30.163 
20:10	18.9	18.9	18.9	80	13.8	2	5	248	0.00	30.163 
20:15	18.9	18.9	18.9	80	13.8	1	3	248	0.00	30.166 
20:20	18.9	18.9	18.9	80	13.8	2	4	248	0.00	30.166 
20:25	18.9	18.9	18.9	81	14.1	1	3	248	0.00	30.166 
20:30	18.9	18.9	18.9	81	14.1	2	3	248	0.00	30.169 
20:35	18.9	18.9	18.9	81	14.1	2	5	248	0.00	30.169 
20:40	18.9	18.9	18.9	81	14.1	2	4	248	0.00	30.169 
20:45	19.1	19.1	19.1	81	14.2	2	5	270	0.00	30.172 
20:50	19.1	19.1	19.1	81	14.2	1	3	270	0.00	30.172 
20:55	19.1	19.1	19.1	80	14.0	2	5	270	0.00	30.172 
21:00	19.1	19.1	19.1	80	14.0	1	3	248	0.00	30.172 
21:05	18.9	18.9	18.9	80	13.8	1	3	248	0.00	30.172 
21:10	18.9	18.9	18.9	80	13.8	1	3	248	0.00	30.172 
21:15	18.9	18.9	18.9	80	13.8	1	3	248	0.00	30.174 
21:20	18.9	18.9	18.9	80	13.8	1	4	248	0.00	30.174 
21:25	18.9	18.9	18.9	80	13.8	1	3	270	0.00	30.174 
21:30	18.9	18.9	18.9	79	13.5	1	3	248	0.00	30.173 
21:35	18.8	18.8	18.8	79	13.4	2	4	248	0.00	30.173 
21:40	18.8	18.8	18.8	79	13.4	2	4	248	0.00	30.173 
21:45	18.8	18.8	18.8	78	13.1	2	4	248	0.00	30.175 
21:50	18.8	18.8	18.8	78	13.1	2	4	248	0.00	30.175 
21:55	18.8	18.8	18.8	77	12.8	2	5	270	0.00	30.175 
22:00	18.6	18.6	18.6	76	12.3	2	4	225	0.00	30.181 
22:05	18.3	18.3	18.3	76	12.0	2	4	270	0.00	30.181 
22:10	18.1	18.1	18.1	75	11.5	1	3	270	0.00	30.181 
22:15	18.0	18.0	18.0	75	11.4	1	3	248	0.00	30.183 
22:20	17.8	17.8	17.8	75	11.2	1	2	248	0.00	30.183 
22:25	17.7	17.7	17.7	75	11.1	1	3	248	0.00	30.183 
22:30	17.5	17.5	17.5	76	11.3	1	4	248	0.00	30.186 
22:35	17.3	17.3	17.3	76	11.1	1	3	270	0.00	30.186 
22:40	17.3	17.3	17.3	76	11.1	1	3	270	0.00	30.186 
22:45	17.3	17.3	17.3	76	11.1	1	4	270	0.00	30.185 
22:50	17.2	17.2	17.2	75	10.7	1	3	248	0.00	30.185 
22:55	17.3	17.3	17.3	75	10.8	1	3	248	0.00	30.185 
23:00	17.3	17.3	17.3	75	10.8	1	3	248	0.00	30.183 
23:05	17.2	17.2	17.2	74	10.4	0	2	248	0.00	30.183 
23:10	17.0	17.0	17.0	74	10.2	0	2	248	0.00	30.183 
23:15	16.9	16.9	16.9	74	10.1	1	3	248	0.00	30.188 
23:20	16.5	16.5	16.5	73	9.4	1	3	248	0.00	30.188 
23:25	16.2	16.2	16.2	73	9.1	1	3	248	0.00	30.188 
23:30	15.9	15.9	15.9	73	8.8	1	3	248	0.00	30.185 
23:35	15.7	15.7	15.7	73	8.6	0	2	248	0.00	30.185 
23:40	15.4	15.4	15.4	73	8.3	0	2	248	0.00	30.185 
23:45	15.1	15.1	15.1	73	8.0	0	2	248	0.00	30.190 
23:50	14.9	14.9	14.9	74	8.1	0	2	248	0.00	30.190 
23:55	14.6	14.6	14.6	74	7.8	0	3	248	0.00	30.190 

CoCoRaHS
IN-AL-39
A2 Web Hosting
Creative Commons License
GoDaddy
search engine by freefind advanced

loaded 2018-11-20 15:23:17 • last modified 2010-11-18 10:43:29
Privacy PolicyDisclaimer
• wx.awcolley.com is powered by PmWiki v.2002016 •
• all content (unless otherwise noted) © 2018 A W Colley